sensor_id;sensor_type;location;lat;lon;timestamp;P1;durP1;ratioP1;P2;durP2;ratioP2
67869;SDS011;54673;52.262;6.830;2023-07-13T00:02:06;8.18;;;1.92;;
67869;SDS011;54673;52.262;6.830;2023-07-13T00:04:32;5.90;;;1.90;;
67869;SDS011;54673;52.262;6.830;2023-07-13T00:06:57;7.43;;;1.87;;
67869;SDS011;54673;52.262;6.830;2023-07-13T00:09:23;5.75;;;1.85;;
67869;SDS011;54673;52.262;6.830;2023-07-13T00:11:52;5.80;;;1.60;;
67869;SDS011;54673;52.262;6.830;2023-07-13T00:14:19;7.30;;;1.88;;
67869;SDS011;54673;52.262;6.830;2023-07-13T00:16:45;6.03;;;1.93;;
67869;SDS011;54673;52.262;6.830;2023-07-13T00:19:11;3.17;;;1.40;;
67869;SDS011;54673;52.262;6.830;2023-07-13T00:21:38;5.35;;;1.48;;
67869;SDS011;54673;52.262;6.830;2023-07-13T00:24:05;7.03;;;1.50;;
67869;SDS011;54673;52.262;6.830;2023-07-13T00:26:32;6.25;;;1.50;;
67869;SDS011;54673;52.262;6.830;2023-07-13T00:28:59;7.15;;;1.63;;
67869;SDS011;54673;52.262;6.830;2023-07-13T00:31:25;5.97;;;1.93;;
67869;SDS011;54673;52.262;6.830;2023-07-13T00:33:51;4.07;;;1.37;;
67869;SDS011;54673;52.262;6.830;2023-07-13T00:36:17;5.22;;;1.80;;
67869;SDS011;54673;52.262;6.830;2023-07-13T00:38:43;6.13;;;1.90;;
67869;SDS011;54673;52.262;6.830;2023-07-13T00:41:09;6.67;;;1.90;;
67869;SDS011;54673;52.262;6.830;2023-07-13T00:43:35;7.78;;;1.73;;
67869;SDS011;54673;52.262;6.830;2023-07-13T00:48:27;3.33;;;1.47;;
67869;SDS011;54673;52.262;6.830;2023-07-13T00:50:58;5.43;;;2.10;;
67869;SDS011;54673;52.262;6.830;2023-07-13T00:53:26;6.30;;;1.90;;
67869;SDS011;54673;52.262;6.830;2023-07-13T00:55:54;2.83;;;1.40;;
67869;SDS011;54673;52.262;6.830;2023-07-13T00:58:21;2.78;;;1.27;;
67869;SDS011;54673;52.262;6.830;2023-07-13T01:00:48;3.27;;;1.40;;
67869;SDS011;54673;52.262;6.830;2023-07-13T01:03:15;4.60;;;1.50;;
67869;SDS011;54673;52.262;6.830;2023-07-13T01:05:41;6.03;;;1.50;;
67869;SDS011;54673;52.262;6.830;2023-07-13T01:08:07;2.73;;;1.30;;
67869;SDS011;54673;52.262;6.830;2023-07-13T01:10:33;3.65;;;1.58;;
67869;SDS011;54673;52.262;6.830;2023-07-13T01:13:04;5.13;;;1.58;;
67869;SDS011;54673;52.262;6.830;2023-07-13T01:15:39;5.50;;;1.60;;
67869;SDS011;54673;52.262;6.830;2023-07-13T01:18:12;3.22;;;1.67;;
67869;SDS011;54673;52.262;6.830;2023-07-13T01:20:50;4.40;;;1.63;;
67869;SDS011;54673;52.262;6.830;2023-07-13T01:23:22;7.10;;;1.80;;
67869;SDS011;54673;52.262;6.830;2023-07-13T01:25:49;5.00;;;1.77;;
67869;SDS011;54673;52.262;6.830;2023-07-13T01:28:16;5.40;;;1.92;;
67869;SDS011;54673;52.262;6.830;2023-07-13T01:30:42;6.13;;;1.80;;
67869;SDS011;54673;52.262;6.830;2023-07-13T01:33:14;3.80;;;1.80;;
67869;SDS011;54673;52.262;6.830;2023-07-13T01:35:42;4.75;;;1.50;;
67869;SDS011;54673;52.262;6.830;2023-07-13T01:38:08;4.72;;;1.95;;
67869;SDS011;54673;52.262;6.830;2023-07-13T01:40:36;4.50;;;1.80;;
67869;SDS011;54673;52.262;6.830;2023-07-13T01:43:02;4.78;;;1.50;;
67869;SDS011;54673;52.262;6.830;2023-07-13T01:45:28;5.30;;;1.90;;
67869;SDS011;54673;52.262;6.830;2023-07-13T01:47:53;6.00;;;2.03;;
67869;SDS011;54673;52.262;6.830;2023-07-13T01:50:19;5.60;;;2.15;;
67869;SDS011;54673;52.262;6.830;2023-07-13T01:52:45;5.40;;;2.07;;
67869;SDS011;54673;52.262;6.830;2023-07-13T01:55:11;2.93;;;1.80;;
67869;SDS011;54673;52.262;6.830;2023-07-13T01:57:37;3.30;;;1.83;;
67869;SDS011;54673;52.262;6.830;2023-07-13T02:00:03;6.40;;;1.70;;
67869;SDS011;54673;52.262;6.830;2023-07-13T02:02:31;5.35;;;1.65;;
67869;SDS011;54673;52.262;6.830;2023-07-13T02:04:57;4.38;;;2.05;;
67869;SDS011;54673;52.262;6.830;2023-07-13T02:07:22;7.90;;;1.70;;
67869;SDS011;54673;52.262;6.830;2023-07-13T02:09:48;5.63;;;2.03;;
67869;SDS011;54673;52.262;6.830;2023-07-13T02:12:14;4.33;;;1.63;;
67869;SDS011;54673;52.262;6.830;2023-07-13T02:14:39;3.72;;;1.45;;
67869;SDS011;54673;52.262;6.830;2023-07-13T02:17:05;4.23;;;1.40;;
67869;SDS011;54673;52.262;6.830;2023-07-13T02:19:31;6.10;;;2.05;;
67869;SDS011;54673;52.262;6.830;2023-07-13T02:21:57;5.22;;;1.67;;
67869;SDS011;54673;52.262;6.830;2023-07-13T02:24:23;4.97;;;1.77;;
67869;SDS011;54673;52.262;6.830;2023-07-13T02:26:48;5.65;;;1.70;;
67869;SDS011;54673;52.262;6.830;2023-07-13T02:29:14;4.60;;;1.70;;
67869;SDS011;54673;52.262;6.830;2023-07-13T02:31:40;5.40;;;1.50;;
67869;SDS011;54673;52.262;6.830;2023-07-13T02:34:05;6.37;;;1.60;;
67869;SDS011;54673;52.262;6.830;2023-07-13T02:36:31;6.00;;;1.75;;
67869;SDS011;54673;52.262;6.830;2023-07-13T02:39:00;5.90;;;1.60;;
67869;SDS011;54673;52.262;6.830;2023-07-13T02:41:27;4.80;;;1.70;;
67869;SDS011;54673;52.262;6.830;2023-07-13T02:43:53;6.47;;;2.33;;
67869;SDS011;54673;52.262;6.830;2023-07-13T02:46:27;4.05;;;1.40;;
67869;SDS011;54673;52.262;6.830;2023-07-13T02:48:53;7.53;;;1.97;;
67869;SDS011;54673;52.262;6.830;2023-07-13T02:51:19;4.40;;;1.67;;
67869;SDS011;54673;52.262;6.830;2023-07-13T02:53:45;7.17;;;1.60;;
67869;SDS011;54673;52.262;6.830;2023-07-13T02:56:10;3.78;;;1.60;;
67869;SDS011;54673;52.262;6.830;2023-07-13T02:58:36;5.20;;;1.73;;
67869;SDS011;54673;52.262;6.830;2023-07-13T03:01:07;4.32;;;1.52;;
67869;SDS011;54673;52.262;6.830;2023-07-13T03:03:34;5.68;;;1.50;;
67869;SDS011;54673;52.262;6.830;2023-07-13T03:06:00;6.23;;;1.77;;
67869;SDS011;54673;52.262;6.830;2023-07-13T03:08:28;6.15;;;1.77;;
67869;SDS011;54673;52.262;6.830;2023-07-13T03:13:52;7.80;;;1.80;;
67869;SDS011;54673;52.262;6.830;2023-07-13T03:16:18;5.03;;;1.70;;
67869;SDS011;54673;52.262;6.830;2023-07-13T03:18:44;4.50;;;1.58;;
67869;SDS011;54673;52.262;6.830;2023-07-13T03:21:10;5.87;;;2.10;;
67869;SDS011;54673;52.262;6.830;2023-07-13T03:23:36;3.35;;;1.70;;
67869;SDS011;54673;52.262;6.830;2023-07-13T03:28:30;3.60;;;1.80;;
67869;SDS011;54673;52.262;6.830;2023-07-13T03:31:03;3.83;;;1.50;;
67869;SDS011;54673;52.262;6.830;2023-07-13T03:33:30;3.67;;;1.40;;
67869;SDS011;54673;52.262;6.830;2023-07-13T03:35:56;4.10;;;1.60;;
67869;SDS011;54673;52.262;6.830;2023-07-13T03:38:22;5.85;;;1.58;;
67869;SDS011;54673;52.262;6.830;2023-07-13T03:40:48;4.33;;;1.50;;
67869;SDS011;54673;52.262;6.830;2023-07-13T03:43:14;3.40;;;1.83;;
67869;SDS011;54673;52.262;6.830;2023-07-13T03:45:40;3.03;;;1.50;;
67869;SDS011;54673;52.262;6.830;2023-07-13T03:48:05;7.13;;;1.63;;
67869;SDS011;54673;52.262;6.830;2023-07-13T03:50:31;5.95;;;1.60;;
67869;SDS011;54673;52.262;6.830;2023-07-13T03:52:57;5.50;;;2.20;;
67869;SDS011;54673;52.262;6.830;2023-07-13T03:55:24;6.60;;;1.80;;
67869;SDS011;54673;52.262;6.830;2023-07-13T03:57:57;5.55;;;1.55;;
67869;SDS011;54673;52.262;6.830;2023-07-13T04:00:25;4.67;;;1.90;;
67869;SDS011;54673;52.262;6.830;2023-07-13T04:02:51;6.50;;;1.85;;
67869;SDS011;54673;52.262;6.830;2023-07-13T04:05:16;5.80;;;1.52;;
67869;SDS011;54673;52.262;6.830;2023-07-13T04:07:43;4.43;;;2.00;;
67869;SDS011;54673;52.262;6.830;2023-07-13T04:10:09;6.18;;;1.80;;
67869;SDS011;54673;52.262;6.830;2023-07-13T04:12:35;5.97;;;1.60;;
67869;SDS011;54673;52.262;6.830;2023-07-13T04:15:01;2.97;;;1.70;;
67869;SDS011;54673;52.262;6.830;2023-07-13T04:17:26;6.43;;;1.90;;
67869;SDS011;54673;52.262;6.830;2023-07-13T04:19:52;4.72;;;1.50;;
67869;SDS011;54673;52.262;6.830;2023-07-13T04:22:17;4.60;;;2.03;;
67869;SDS011;54673;52.262;6.830;2023-07-13T04:24:43;3.78;;;1.95;;
67869;SDS011;54673;52.262;6.830;2023-07-13T04:27:09;7.17;;;1.93;;
67869;SDS011;54673;52.262;6.830;2023-07-13T04:29:34;4.75;;;2.17;;
67869;SDS011;54673;52.262;6.830;2023-07-13T04:32:00;7.30;;;1.90;;
67869;SDS011;54673;52.262;6.830;2023-07-13T04:34:26;4.80;;;1.98;;
67869;SDS011;54673;52.262;6.830;2023-07-13T04:36:51;7.83;;;2.10;;
67869;SDS011;54673;52.262;6.830;2023-07-13T04:39:17;5.22;;;1.83;;
67869;SDS011;54673;52.262;6.830;2023-07-13T04:41:43;7.63;;;1.70;;
67869;SDS011;54673;52.262;6.830;2023-07-13T04:44:09;6.57;;;1.70;;
67869;SDS011;54673;52.262;6.830;2023-07-13T04:46:34;3.63;;;1.73;;
67869;SDS011;54673;52.262;6.830;2023-07-13T04:49:00;4.38;;;2.00;;
67869;SDS011;54673;52.262;6.830;2023-07-13T04:51:28;6.07;;;1.80;;
67869;SDS011;54673;52.262;6.830;2023-07-13T04:53:54;8.32;;;2.20;;
67869;SDS011;54673;52.262;6.830;2023-07-13T04:56:20;5.27;;;2.17;;
67869;SDS011;54673;52.262;6.830;2023-07-13T04:58:45;6.43;;;2.10;;
67869;SDS011;54673;52.262;6.830;2023-07-13T05:01:11;6.15;;;1.98;;
67869;SDS011;54673;52.262;6.830;2023-07-13T05:03:38;4.73;;;1.77;;
67869;SDS011;54673;52.262;6.830;2023-07-13T05:06:05;3.95;;;1.80;;
67869;SDS011;54673;52.262;6.830;2023-07-13T05:08:32;6.47;;;2.00;;
67869;SDS011;54673;52.262;6.830;2023-07-13T05:11:01;7.40;;;2.05;;
67869;SDS011;54673;52.262;6.830;2023-07-13T05:13:28;6.70;;;2.20;;
67869;SDS011;54673;52.262;6.830;2023-07-13T05:15:57;5.33;;;2.23;;
67869;SDS011;54673;52.262;6.830;2023-07-13T05:18:24;6.53;;;2.40;;
67869;SDS011;54673;52.262;6.830;2023-07-13T05:21:01;4.50;;;1.85;;
67869;SDS011;54673;52.262;6.830;2023-07-13T05:23:29;4.83;;;1.80;;
67869;SDS011;54673;52.262;6.830;2023-07-13T05:25:55;6.15;;;2.10;;
67869;SDS011;54673;52.262;6.830;2023-07-13T05:28:21;4.97;;;1.95;;
67869;SDS011;54673;52.262;6.830;2023-07-13T05:30:47;6.23;;;2.00;;
67869;SDS011;54673;52.262;6.830;2023-07-13T05:33:13;5.28;;;2.50;;
67869;SDS011;54673;52.262;6.830;2023-07-13T05:35:39;6.37;;;2.10;;
67869;SDS011;54673;52.262;6.830;2023-07-13T05:38:05;6.20;;;2.05;;
67869;SDS011;54673;52.262;6.830;2023-07-13T05:40:31;5.80;;;2.38;;
67869;SDS011;54673;52.262;6.830;2023-07-13T05:42:57;5.50;;;2.00;;
67869;SDS011;54673;52.262;6.830;2023-07-13T05:45:22;6.50;;;2.40;;
67869;SDS011;54673;52.262;6.830;2023-07-13T05:47:48;10.13;;;2.37;;
67869;SDS011;54673;52.262;6.830;2023-07-13T05:50:14;8.40;;;2.35;;
67869;SDS011;54673;52.262;6.830;2023-07-13T05:52:40;6.40;;;2.33;;
67869;SDS011;54673;52.262;6.830;2023-07-13T05:55:05;9.98;;;2.67;;
67869;SDS011;54673;52.262;6.830;2023-07-13T05:57:31;5.85;;;1.98;;
67869;SDS011;54673;52.262;6.830;2023-07-13T05:59:57;8.63;;;2.60;;
67869;SDS011;54673;52.262;6.830;2023-07-13T06:02:23;5.63;;;2.30;;
67869;SDS011;54673;52.262;6.830;2023-07-13T06:04:48;8.40;;;2.30;;
67869;SDS011;54673;52.262;6.830;2023-07-13T06:07:14;7.47;;;2.20;;
67869;SDS011;54673;52.262;6.830;2023-07-13T06:09:40;7.53;;;2.58;;
67869;SDS011;54673;52.262;6.830;2023-07-13T06:12:05;6.77;;;2.50;;
67869;SDS011;54673;52.262;6.830;2023-07-13T06:14:31;9.60;;;2.70;;
67869;SDS011;54673;52.262;6.830;2023-07-13T06:16:57;9.57;;;2.55;;
67869;SDS011;54673;52.262;6.830;2023-07-13T06:19:23;11.47;;;2.50;;
67869;SDS011;54673;52.262;6.830;2023-07-13T06:21:49;12.63;;;2.53;;
67869;SDS011;54673;52.262;6.830;2023-07-13T06:24:14;5.20;;;2.20;;
67869;SDS011;54673;52.262;6.830;2023-07-13T06:26:40;7.30;;;2.60;;
67869;SDS011;54673;52.262;6.830;2023-07-13T06:29:06;9.93;;;3.03;;
67869;SDS011;54673;52.262;6.830;2023-07-13T06:31:31;10.05;;;3.00;;
67869;SDS011;54673;52.262;6.830;2023-07-13T06:33:57;8.17;;;2.87;;
67869;SDS011;54673;52.262;6.830;2023-07-13T06:36:23;8.25;;;2.80;;
67869;SDS011;54673;52.262;6.830;2023-07-13T06:38:48;7.27;;;2.97;;
67869;SDS011;54673;52.262;6.830;2023-07-13T06:41:14;10.45;;;2.65;;
67869;SDS011;54673;52.262;6.830;2023-07-13T06:43:40;8.17;;;2.70;;
67869;SDS011;54673;52.262;6.830;2023-07-13T06:46:05;8.18;;;2.50;;
67869;SDS011;54673;52.262;6.830;2023-07-13T06:48:31;7.33;;;2.60;;
67869;SDS011;54673;52.262;6.830;2023-07-13T06:50:57;11.38;;;3.20;;
67869;SDS011;54673;52.262;6.830;2023-07-13T06:53:23;9.03;;;3.20;;
67869;SDS011;54673;52.262;6.830;2023-07-13T06:55:49;8.53;;;2.40;;
67869;SDS011;54673;52.262;6.830;2023-07-13T06:58:15;10.15;;;3.25;;
67869;SDS011;54673;52.262;6.830;2023-07-13T07:00:42;7.18;;;2.55;;
67869;SDS011;54673;52.262;6.830;2023-07-13T07:03:08;6.43;;;2.27;;
67869;SDS011;54673;52.262;6.830;2023-07-13T07:05:34;9.82;;;3.00;;
67869;SDS011;54673;52.262;6.830;2023-07-13T07:08:00;8.53;;;2.77;;
67869;SDS011;54673;52.262;6.830;2023-07-13T07:10:25;7.97;;;2.70;;
67869;SDS011;54673;52.262;6.830;2023-07-13T07:12:51;10.57;;;2.90;;
67869;SDS011;54673;52.262;6.830;2023-07-13T07:15:17;9.93;;;2.67;;
67869;SDS011;54673;52.262;6.830;2023-07-13T07:17:43;8.38;;;2.83;;
67869;SDS011;54673;52.262;6.830;2023-07-13T07:20:09;11.90;;;3.33;;
67869;SDS011;54673;52.262;6.830;2023-07-13T07:22:35;8.68;;;2.90;;
67869;SDS011;54673;52.262;6.830;2023-07-13T07:25:01;8.60;;;3.10;;
67869;SDS011;54673;52.262;6.830;2023-07-13T07:27:26;10.20;;;3.45;;
67869;SDS011;54673;52.262;6.830;2023-07-13T07:29:52;9.93;;;3.30;;
67869;SDS011;54673;52.262;6.830;2023-07-13T07:32:18;9.10;;;3.47;;
67869;SDS011;54673;52.262;6.830;2023-07-13T07:34:45;7.60;;;3.58;;
67869;SDS011;54673;52.262;6.830;2023-07-13T07:37:11;10.90;;;3.60;;
67869;SDS011;54673;52.262;6.830;2023-07-13T07:39:38;8.75;;;3.75;;
67869;SDS011;54673;52.262;6.830;2023-07-13T07:42:04;11.48;;;3.80;;
67869;SDS011;54673;52.262;6.830;2023-07-13T07:44:31;10.47;;;4.50;;
67869;SDS011;54673;52.262;6.830;2023-07-13T07:46:57;10.55;;;4.18;;
67869;SDS011;54673;52.262;6.830;2023-07-13T07:49:22;8.50;;;4.20;;
67869;SDS011;54673;52.262;6.830;2023-07-13T07:51:48;11.53;;;4.10;;
67869;SDS011;54673;52.262;6.830;2023-07-13T07:54:14;11.70;;;4.65;;
67869;SDS011;54673;52.262;6.830;2023-07-13T07:56:40;8.93;;;3.80;;
67869;SDS011;54673;52.262;6.830;2023-07-13T07:59:06;11.30;;;3.95;;
67869;SDS011;54673;52.262;6.830;2023-07-13T08:01:31;9.80;;;4.03;;
67869;SDS011;54673;52.262;6.830;2023-07-13T08:03:57;8.75;;;4.45;;
67869;SDS011;54673;52.262;6.830;2023-07-13T08:06:23;11.23;;;3.93;;
67869;SDS011;54673;52.262;6.830;2023-07-13T08:08:49;12.52;;;4.05;;
67869;SDS011;54673;52.262;6.830;2023-07-13T08:11:15;26.33;;;4.27;;
67869;SDS011;54673;52.262;6.830;2023-07-13T08:13:41;16.43;;;4.10;;
67869;SDS011;54673;52.262;6.830;2023-07-13T08:16:07;12.68;;;3.85;;
67869;SDS011;54673;52.262;6.830;2023-07-13T08:18:33;8.43;;;3.70;;
67869;SDS011;54673;52.262;6.830;2023-07-13T08:21:02;8.90;;;3.90;;
67869;SDS011;54673;52.262;6.830;2023-07-13T08:23:29;9.80;;;3.57;;
67869;SDS011;54673;52.262;6.830;2023-07-13T08:25:54;10.83;;;4.53;;
67869;SDS011;54673;52.262;6.830;2023-07-13T08:28:21;7.30;;;3.77;;
67869;SDS011;54673;52.262;6.830;2023-07-13T08:30:48;14.67;;;4.20;;
67869;SDS011;54673;52.262;6.830;2023-07-13T08:33:17;11.27;;;4.43;;
67869;SDS011;54673;52.262;6.830;2023-07-13T08:35:50;9.53;;;4.30;;
67869;SDS011;54673;52.262;6.830;2023-07-13T08:38:16;8.83;;;4.20;;
67869;SDS011;54673;52.262;6.830;2023-07-13T08:40:42;11.30;;;4.38;;
67869;SDS011;54673;52.262;6.830;2023-07-13T08:43:12;9.77;;;3.95;;
67869;SDS011;54673;52.262;6.830;2023-07-13T08:45:42;10.47;;;4.50;;
67869;SDS011;54673;52.262;6.830;2023-07-13T08:48:13;9.98;;;4.47;;
67869;SDS011;54673;52.262;6.830;2023-07-13T08:53:57;10.70;;;4.80;;
67869;SDS011;54673;52.262;6.830;2023-07-13T08:56:27;12.32;;;4.40;;
67869;SDS011;54673;52.262;6.830;2023-07-13T08:59:00;11.75;;;4.80;;
67869;SDS011;54673;52.262;6.830;2023-07-13T09:01:34;8.50;;;5.13;;
67869;SDS011;54673;52.262;6.830;2023-07-13T09:04:16;10.07;;;4.27;;
67869;SDS011;54673;52.262;6.830;2023-07-13T09:12:11;10.43;;;4.55;;
67869;SDS011;54673;52.262;6.830;2023-07-13T09:15:02;12.70;;;4.97;;
67869;SDS011;54673;52.262;6.830;2023-07-13T09:17:33;11.10;;;4.67;;
67869;SDS011;54673;52.262;6.830;2023-07-13T09:20:18;13.65;;;4.55;;
67869;SDS011;54673;52.262;6.830;2023-07-13T09:22:45;9.73;;;4.10;;
67869;SDS011;54673;52.262;6.830;2023-07-13T09:25:23;10.40;;;4.73;;
67869;SDS011;54673;52.262;6.830;2023-07-13T09:27:53;10.20;;;4.80;;
67869;SDS011;54673;52.262;6.830;2023-07-13T09:30:33;12.95;;;4.57;;
67869;SDS011;54673;52.262;6.830;2023-07-13T09:33:18;9.73;;;4.30;;
67869;SDS011;54673;52.262;6.830;2023-07-13T09:35:44;8.73;;;4.40;;
67869;SDS011;54673;52.262;6.830;2023-07-13T09:38:14;8.52;;;4.60;;
67869;SDS011;54673;52.262;6.830;2023-07-13T09:40:53;11.52;;;4.70;;
67869;SDS011;54673;52.262;6.830;2023-07-13T09:43:24;9.77;;;4.33;;
67869;SDS011;54673;52.262;6.830;2023-07-13T09:45:50;11.05;;;4.60;;
67869;SDS011;54673;52.262;6.830;2023-07-13T09:48:16;13.65;;;4.50;;
67869;SDS011;54673;52.262;6.830;2023-07-13T09:50:43;14.17;;;4.93;;
67869;SDS011;54673;52.262;6.830;2023-07-13T09:53:13;11.55;;;5.20;;
67869;SDS011;54673;52.262;6.830;2023-07-13T09:55:41;10.32;;;5.15;;
67869;SDS011;54673;52.262;6.830;2023-07-13T10:00:37;12.27;;;5.05;;
67869;SDS011;54673;52.262;6.830;2023-07-13T10:03:22;12.05;;;5.20;;
67869;SDS011;54673;52.262;6.830;2023-07-13T10:05:51;15.33;;;4.67;;
67869;SDS011;54673;52.262;6.830;2023-07-13T10:08:28;12.23;;;4.80;;
67869;SDS011;54673;52.262;6.830;2023-07-13T10:11:02;9.10;;;4.13;;
67869;SDS011;54673;52.262;6.830;2023-07-13T10:13:37;10.33;;;4.43;;
67869;SDS011;54673;52.262;6.830;2023-07-13T10:16:06;8.17;;;4.67;;
67869;SDS011;54673;52.262;6.830;2023-07-13T10:18:37;9.98;;;4.88;;
67869;SDS011;54673;52.262;6.830;2023-07-13T10:21:27;9.55;;;5.05;;
67869;SDS011;54673;52.262;6.830;2023-07-13T10:23:59;9.80;;;5.00;;
67869;SDS011;54673;52.262;6.830;2023-07-13T10:26:32;11.35;;;5.00;;
67869;SDS011;54673;52.262;6.830;2023-07-13T10:29:02;8.15;;;4.43;;
67869;SDS011;54673;52.262;6.830;2023-07-13T10:31:40;10.03;;;4.47;;
67869;SDS011;54673;52.262;6.830;2023-07-13T10:34:09;9.25;;;4.40;;
67869;SDS011;54673;52.262;6.830;2023-07-13T10:36:43;9.00;;;4.28;;
67869;SDS011;54673;52.262;6.830;2023-07-13T10:39:20;6.97;;;4.10;;
67869;SDS011;54673;52.262;6.830;2023-07-13T10:42:04;11.67;;;4.63;;
67869;SDS011;54673;52.262;6.830;2023-07-13T10:44:34;10.82;;;4.03;;
67869;SDS011;54673;52.262;6.830;2023-07-13T10:47:11;8.60;;;4.25;;
67869;SDS011;54673;52.262;6.830;2023-07-13T10:49:43;7.63;;;4.10;;
67869;SDS011;54673;52.262;6.830;2023-07-13T10:58:03;7.77;;;4.17;;
67869;SDS011;54673;52.262;6.830;2023-07-13T11:03:23;10.52;;;5.32;;
67869;SDS011;54673;52.262;6.830;2023-07-13T11:06:03;10.53;;;4.60;;
67869;SDS011;54673;52.262;6.830;2023-07-13T11:10:56;12.60;;;5.35;;
67869;SDS011;54673;52.262;6.830;2023-07-13T11:19:37;8.65;;;4.95;;
67869;SDS011;54673;52.262;6.830;2023-07-13T11:21:30;12.27;;;4.70;;
67869;SDS011;54673;52.262;6.830;2023-07-13T11:24:04;8.63;;;4.47;;
67869;SDS011;54673;52.262;6.830;2023-07-13T11:26:42;10.50;;;4.70;;
67869;SDS011;54673;52.262;6.830;2023-07-13T11:31:57;8.55;;;4.10;;
67869;SDS011;54673;52.262;6.830;2023-07-13T11:34:27;7.50;;;3.90;;
67869;SDS011;54673;52.262;6.830;2023-07-13T11:36:55;8.80;;;4.10;;
67869;SDS011;54673;52.262;6.830;2023-07-13T11:39:24;7.20;;;3.78;;
67869;SDS011;54673;52.262;6.830;2023-07-13T11:42:00;8.57;;;4.05;;
67869;SDS011;54673;52.262;6.830;2023-07-13T11:44:30;5.47;;;3.60;;
67869;SDS011;54673;52.262;6.830;2023-07-13T11:46:58;5.67;;;3.30;;
67869;SDS011;54673;52.262;6.830;2023-07-13T11:49:30;7.07;;;3.20;;
67869;SDS011;54673;52.262;6.830;2023-07-13T11:51:57;6.18;;;3.30;;
67869;SDS011;54673;52.262;6.830;2023-07-13T11:56:59;7.45;;;3.17;;
67869;SDS011;54673;52.262;6.830;2023-07-13T11:59:31;4.68;;;2.95;;
67869;SDS011;54673;52.262;6.830;2023-07-13T12:01:58;6.07;;;3.10;;
67869;SDS011;54673;52.262;6.830;2023-07-13T12:06:56;3.28;;;1.60;;
67869;SDS011;54673;52.262;6.830;2023-07-13T12:09:42;2.47;;;1.60;;
67869;SDS011;54673;52.262;6.830;2023-07-13T12:12:12;2.03;;;1.33;;
67869;SDS011;54673;52.262;6.830;2023-07-13T12:14:40;2.40;;;1.30;;
67869;SDS011;54673;52.262;6.830;2023-07-13T12:17:17;2.20;;;1.40;;
67869;SDS011;54673;52.262;6.830;2023-07-13T12:19:45;1.57;;;1.23;;
67869;SDS011;54673;52.262;6.830;2023-07-13T12:22:12;1.83;;;1.10;;
67869;SDS011;54673;52.262;6.830;2023-07-13T12:24:42;2.37;;;1.20;;
67869;SDS011;54673;52.262;6.830;2023-07-13T12:27:23;1.93;;;1.47;;
67869;SDS011;54673;52.262;6.830;2023-07-13T12:30:04;2.20;;;1.50;;
67869;SDS011;54673;52.262;6.830;2023-07-13T12:35:44;3.13;;;2.00;;
67869;SDS011;54673;52.262;6.830;2023-07-13T12:38:12;2.50;;;1.80;;
67869;SDS011;54673;52.262;6.830;2023-07-13T12:40:39;7.82;;;2.17;;
67869;SDS011;54673;52.262;6.830;2023-07-13T12:43:09;5.33;;;2.20;;
67869;SDS011;54673;52.262;6.830;2023-07-13T12:45:37;4.47;;;2.20;;
67869;SDS011;54673;52.262;6.830;2023-07-13T12:48:04;4.03;;;2.10;;
67869;SDS011;54673;52.262;6.830;2023-07-13T12:50:39;4.53;;;2.60;;
67869;SDS011;54673;52.262;6.830;2023-07-13T12:53:09;4.10;;;2.50;;
67869;SDS011;54673;52.262;6.830;2023-07-13T12:55:42;5.43;;;2.38;;
67869;SDS011;54673;52.262;6.830;2023-07-13T12:58:17;5.50;;;2.70;;
67869;SDS011;54673;52.262;6.830;2023-07-13T13:00:49;3.00;;;2.45;;
67869;SDS011;54673;52.262;6.830;2023-07-13T13:06:01;6.20;;;2.63;;
67869;SDS011;54673;52.262;6.830;2023-07-13T13:08:35;4.72;;;2.33;;
67869;SDS011;54673;52.262;6.830;2023-07-13T13:11:02;8.43;;;2.50;;
67869;SDS011;54673;52.262;6.830;2023-07-13T13:13:28;3.50;;;2.47;;
67869;SDS011;54673;52.262;6.830;2023-07-13T13:15:53;4.65;;;2.70;;
67869;SDS011;54673;52.262;6.830;2023-07-13T13:18:20;3.63;;;2.70;;
67869;SDS011;54673;52.262;6.830;2023-07-13T13:20:47;4.63;;;2.20;;
67869;SDS011;54673;52.262;6.830;2023-07-13T13:23:18;5.03;;;2.40;;
67869;SDS011;54673;52.262;6.830;2023-07-13T13:25:46;4.47;;;2.70;;
67869;SDS011;54673;52.262;6.830;2023-07-13T13:28:19;6.10;;;2.73;;
67869;SDS011;54673;52.262;6.830;2023-07-13T13:30:46;3.25;;;2.50;;
67869;SDS011;54673;52.262;6.830;2023-07-13T13:33:15;6.10;;;2.30;;
67869;SDS011;54673;52.262;6.830;2023-07-13T13:35:42;5.53;;;2.20;;
67869;SDS011;54673;52.262;6.830;2023-07-13T13:38:15;3.90;;;2.28;;
67869;SDS011;54673;52.262;6.830;2023-07-13T13:40:44;2.97;;;2.22;;
67869;SDS011;54673;52.262;6.830;2023-07-13T13:43:14;4.23;;;1.90;;
67869;SDS011;54673;52.262;6.830;2023-07-13T13:45:41;3.42;;;2.00;;
67869;SDS011;54673;52.262;6.830;2023-07-13T13:48:08;5.57;;;2.07;;
67869;SDS011;54673;52.262;6.830;2023-07-13T13:50:39;3.27;;;1.80;;
67869;SDS011;54673;52.262;6.830;2023-07-13T13:53:07;3.40;;;1.95;;
67869;SDS011;54673;52.262;6.830;2023-07-13T13:55:35;3.67;;;1.80;;
67869;SDS011;54673;52.262;6.830;2023-07-13T13:58:00;2.70;;;1.70;;
67869;SDS011;54673;52.262;6.830;2023-07-13T14:00:26;2.67;;;1.93;;
67869;SDS011;54673;52.262;6.830;2023-07-13T14:02:52;3.63;;;1.98;;
67869;SDS011;54673;52.262;6.830;2023-07-13T14:05:23;4.45;;;2.17;;
67869;SDS011;54673;52.262;6.830;2023-07-13T14:07:53;4.87;;;2.40;;
67869;SDS011;54673;52.262;6.830;2023-07-13T14:10:20;4.03;;;2.28;;
67869;SDS011;54673;52.262;6.830;2023-07-13T14:12:47;3.72;;;2.58;;
67869;SDS011;54673;52.262;6.830;2023-07-13T14:17:48;5.47;;;2.50;;
67869;SDS011;54673;52.262;6.830;2023-07-13T14:20:18;4.50;;;2.50;;
67869;SDS011;54673;52.262;6.830;2023-07-13T14:22:45;4.73;;;2.70;;
67869;SDS011;54673;52.262;6.830;2023-07-13T14:25:11;3.83;;;2.60;;
67869;SDS011;54673;52.262;6.830;2023-07-13T14:27:38;8.43;;;2.75;;
67869;SDS011;54673;52.262;6.830;2023-07-13T14:30:08;7.50;;;2.73;;
67869;SDS011;54673;52.262;6.830;2023-07-13T14:32:42;6.87;;;2.90;;
67869;SDS011;54673;52.262;6.830;2023-07-13T14:35:14;6.93;;;3.63;;
67869;SDS011;54673;52.262;6.830;2023-07-13T14:37:42;7.45;;;3.40;;
67869;SDS011;54673;52.262;6.830;2023-07-13T14:40:16;5.30;;;2.90;;
67869;SDS011;54673;52.262;6.830;2023-07-13T14:42:49;5.85;;;3.13;;
67869;SDS011;54673;52.262;6.830;2023-07-13T14:45:16;5.38;;;2.83;;
67869;SDS011;54673;52.262;6.830;2023-07-13T14:47:43;6.03;;;3.03;;
67869;SDS011;54673;52.262;6.830;2023-07-13T14:50:16;3.42;;;2.50;;
67869;SDS011;54673;52.262;6.830;2023-07-13T14:52:44;8.03;;;2.57;;
67869;SDS011;54673;52.262;6.830;2023-07-13T14:55:13;4.00;;;2.60;;
67869;SDS011;54673;52.262;6.830;2023-07-13T14:57:40;6.80;;;2.90;;
67869;SDS011;54673;52.262;6.830;2023-07-13T15:00:21;5.57;;;3.00;;
67869;SDS011;54673;52.262;6.830;2023-07-13T15:02:51;6.78;;;2.72;;
67869;SDS011;54673;52.262;6.830;2023-07-13T15:05:23;4.95;;;2.40;;
67869;SDS011;54673;52.262;6.830;2023-07-13T15:07:50;4.60;;;2.60;;
67869;SDS011;54673;52.262;6.830;2023-07-13T15:10:22;5.27;;;3.17;;
67869;SDS011;54673;52.262;6.830;2023-07-13T15:12:56;4.32;;;2.50;;
67869;SDS011;54673;52.262;6.830;2023-07-13T15:15:37;4.18;;;2.40;;
67869;SDS011;54673;52.262;6.830;2023-07-13T15:18:05;3.93;;;2.40;;
67869;SDS011;54673;52.262;6.830;2023-07-13T15:20:34;4.63;;;2.47;;
67869;SDS011;54673;52.262;6.830;2023-07-13T15:23:00;4.75;;;2.35;;
67869;SDS011;54673;52.262;6.830;2023-07-13T15:25:29;5.53;;;2.50;;
67869;SDS011;54673;52.262;6.830;2023-07-13T15:27:56;11.30;;;2.90;;
67869;SDS011;54673;52.262;6.830;2023-07-13T15:30:23;4.78;;;2.63;;
67869;SDS011;54673;52.262;6.830;2023-07-13T15:32:52;6.37;;;2.60;;
67869;SDS011;54673;52.262;6.830;2023-07-13T15:35:19;5.07;;;2.80;;
67869;SDS011;54673;52.262;6.830;2023-07-13T15:37:47;6.95;;;2.88;;
67869;SDS011;54673;52.262;6.830;2023-07-13T15:40:14;4.78;;;2.65;;
67869;SDS011;54673;52.262;6.830;2023-07-13T15:42:40;5.83;;;2.30;;
67869;SDS011;54673;52.262;6.830;2023-07-13T15:45:17;3.75;;;2.35;;